createdAt,value
2023-01-17T00:00:26.619Z,4.45
2023-01-17T00:02:57.294Z,4.40
2023-01-17T00:05:40.289Z,4.95
2023-01-17T00:08:26.823Z,5.30
2023-01-17T00:10:58.533Z,4.85
2023-01-17T00:13:29.012Z,5.30
2023-01-17T00:16:02.255Z,5.00
2023-01-17T00:18:32.843Z,4.30
2023-01-17T00:21:15.758Z,4.70
2023-01-17T00:23:58.650Z,4.10
2023-01-17T00:26:29.384Z,4.70
2023-01-17T00:28:57.093Z,3.88
2023-01-17T00:31:27.347Z,4.13
2023-01-17T00:33:54.951Z,4.18
2023-01-17T00:36:22.601Z,4.10
2023-01-17T00:38:50.199Z,3.72
2023-01-17T00:41:17.970Z,4.65
2023-01-17T00:44:00.896Z,4.20
2023-01-17T00:46:46.725Z,4.10
2023-01-17T00:49:30.255Z,4.00
2023-01-17T00:52:13.042Z,4.07
2023-01-17T00:54:55.925Z,3.40
2023-01-17T00:57:38.780Z,3.45
2023-01-17T01:00:23.506Z,4.05
2023-01-17T01:03:09.025Z,3.88
2023-01-17T01:05:52.591Z,3.58
2023-01-17T01:08:38.641Z,3.85
2023-01-17T01:11:26.226Z,4.03
2023-01-17T01:14:09.379Z,3.65
2023-01-17T01:16:52.389Z,3.50
2023-01-17T01:19:37.868Z,3.30
2023-01-17T01:22:20.868Z,3.50
2023-01-17T01:25:03.657Z,3.53
2023-01-17T01:27:46.700Z,3.33
2023-01-17T01:30:29.652Z,3.60
2023-01-17T01:33:12.623Z,3.20
2023-01-17T01:35:46.285Z,3.45
2023-01-17T01:38:16.935Z,3.50
2023-01-17T01:40:49.536Z,3.65
2023-01-17T01:43:22.723Z,3.60
2023-01-17T01:45:58.115Z,3.22
2023-01-17T01:48:38.535Z,3.55
2023-01-17T01:51:15.287Z,4.00
2023-01-17T01:53:49.535Z,4.00
2023-01-17T01:56:20.892Z,3.83
2023-01-17T01:58:54.474Z,3.60
2023-01-17T02:01:25.127Z,3.92
2023-01-17T02:03:55.940Z,3.90
2023-01-17T02:06:37.154Z,3.95
2023-01-17T02:09:12.060Z,3.97
2023-01-17T02:11:44.029Z,4.10
2023-01-17T02:14:19.492Z,4.00
2023-01-17T02:17:07.345Z,3.90
2023-01-17T02:20:07.611Z,3.63
2023-01-17T02:23:07.865Z,3.75
2023-01-17T02:26:14.515Z,4.53
2023-01-17T02:29:02.607Z,4.00
2023-01-17T02:31:41.470Z,4.28
2023-01-17T02:34:19.653Z,4.68
2023-01-17T02:36:57.431Z,4.50
2023-01-17T02:39:35.981Z,3.97
2023-01-17T02:42:11.060Z,4.60
2023-01-17T02:44:44.613Z,4.53
2023-01-17T02:47:30.169Z,4.80
2023-01-17T02:50:05.767Z,4.88
2023-01-17T02:52:51.931Z,4.38
2023-01-17T02:55:34.778Z,4.10
2023-01-17T02:58:27.294Z,4.65
2023-01-17T03:01:10.560Z,4.70
2023-01-17T03:03:52.468Z,4.20
2023-01-17T03:06:28.798Z,4.30
2023-01-17T03:08:59.438Z,4.55
2023-01-17T03:11:30.283Z,4.53
2023-01-17T03:14:01.128Z,4.20
2023-01-17T03:16:34.775Z,4.82
2023-01-17T03:19:10.076Z,3.80
2023-01-17T03:21:40.653Z,4.43
2023-01-17T03:24:11.526Z,3.45
2023-01-17T03:26:45.476Z,3.60
2023-01-17T03:29:16.741Z,4.05
2023-01-17T03:31:47.368Z,3.95
2023-01-17T03:34:20.721Z,3.60
2023-01-17T03:36:51.367Z,3.25
2023-01-17T03:39:21.874Z,2.97
2023-01-17T03:41:52.514Z,3.67
2023-01-17T03:44:23.318Z,3.67
2023-01-17T03:46:53.964Z,3.80
2023-01-17T03:49:27.598Z,4.25
2023-01-17T03:51:58.729Z,3.75
2023-01-17T03:54:29.455Z,3.58
2023-01-17T03:57:00.013Z,3.90
2023-01-17T03:59:30.620Z,3.70
2023-01-17T04:02:01.270Z,3.67
2023-01-17T04:04:34.655Z,4.10
2023-01-17T04:07:05.208Z,3.58
2023-01-17T04:09:35.816Z,3.90
2023-01-17T04:12:06.975Z,3.65
2023-01-17T04:14:37.770Z,4.47
2023-01-17T04:17:08.356Z,3.97
2023-01-17T04:19:41.905Z,4.00
2023-01-17T04:22:12.427Z,4.18
2023-01-17T04:24:43.150Z,3.75
2023-01-17T04:27:14.626Z,5.60
2023-01-17T04:29:46.746Z,3.95
2023-01-17T04:32:20.183Z,3.95
2023-01-17T04:34:53.374Z,4.60
2023-01-17T04:37:24.086Z,4.82
2023-01-17T04:39:55.002Z,4.65
2023-01-17T04:42:25.564Z,4.72
2023-01-17T04:44:56.210Z,4.88
2023-01-17T04:47:26.992Z,4.32
2023-01-17T04:50:00.128Z,4.13
2023-01-17T04:52:30.824Z,4.07
2023-01-17T04:55:01.547Z,4.90
2023-01-17T04:57:33.257Z,4.20
2023-01-17T05:00:03.885Z,4.30
2023-01-17T05:02:35.238Z,4.15
2023-01-17T05:05:10.384Z,4.13
2023-01-17T05:07:40.968Z,4.20
2023-01-17T05:10:13.235Z,4.40
2023-01-17T05:12:43.692Z,4.20
2023-01-17T05:15:14.521Z,3.80
2023-01-17T05:17:45.122Z,3.30
2023-01-17T05:20:18.676Z,3.20
2023-01-17T05:22:49.697Z,3.55
2023-01-17T05:25:20.333Z,3.30
2023-01-17T05:27:50.858Z,3.42
2023-01-17T05:30:22.262Z,3.80
2023-01-17T05:32:57.727Z,4.15
2023-01-17T05:35:33.409Z,5.57
2023-01-17T05:40:35.981Z,4.88
2023-01-17T05:43:06.747Z,5.90
2023-01-17T05:45:37.839Z,4.47
2023-01-17T05:48:09.544Z,5.20
2023-01-17T05:50:42.736Z,17.98
2023-01-17T05:53:14.945Z,14.23
2023-01-17T05:55:46.141Z,8.43
2023-01-17T05:58:18.794Z,7.15
2023-01-17T06:00:49.880Z,8.35
2023-01-17T06:03:20.619Z,10.88
2023-01-17T06:05:53.753Z,8.52
2023-01-17T06:08:24.303Z,10.48
2023-01-17T06:10:54.846Z,8.85
2023-01-17T06:13:25.392Z,6.43
2023-01-17T06:15:57.957Z,7.22
2023-01-17T06:18:28.638Z,5.90
2023-01-17T06:21:01.958Z,6.80
2023-01-17T06:23:32.508Z,5.68
2023-01-17T06:26:08.682Z,7.45
2023-01-17T06:28:39.136Z,5.68
2023-01-17T06:31:10.904Z,6.40
2023-01-17T06:33:41.491Z,6.35
2023-01-17T06:36:14.874Z,6.50
2023-01-17T06:38:45.505Z,9.35
2023-01-17T06:41:16.042Z,8.70
2023-01-17T06:43:47.340Z,7.63
2023-01-17T06:46:18.125Z,6.13
2023-01-17T06:48:48.969Z,6.75
2023-01-17T06:51:22.125Z,8.25
2023-01-17T06:53:52.943Z,6.53
2023-01-17T06:56:23.771Z,6.65
2023-01-17T06:58:54.720Z,7.30
2023-01-17T07:01:25.400Z,7.70
2023-01-17T07:03:56.124Z,7.32
2023-01-17T07:06:29.294Z,6.50
2023-01-17T07:09:01.320Z,5.15
2023-01-17T07:11:32.000Z,8.25
2023-01-17T07:14:02.562Z,7.15
2023-01-17T07:16:33.236Z,6.70
2023-01-17T07:19:03.910Z,6.45
2023-01-17T07:21:37.126Z,6.32
2023-01-17T07:24:09.209Z,7.10
2023-01-17T07:26:41.001Z,5.47
2023-01-17T07:29:11.656Z,5.32
2023-01-17T07:31:42.296Z,5.72
2023-01-17T07:34:13.713Z,6.65
2023-01-17T07:36:48.811Z,6.18
2023-01-17T07:39:19.439Z,7.35
2023-01-17T07:41:50.156Z,5.97
2023-01-17T07:44:23.165Z,5.85
2023-01-17T07:46:53.710Z,5.55
2023-01-17T07:49:24.418Z,5.80
2023-01-17T07:51:58.342Z,5.63
2023-01-17T07:54:29.253Z,6.07
2023-01-17T07:56:59.722Z,6.65
2023-01-17T07:59:30.384Z,6.32
2023-01-17T08:02:01.037Z,7.50
2023-01-17T08:04:35.373Z,6.70
2023-01-17T08:07:08.595Z,6.28
2023-01-17T08:09:39.484Z,5.65
2023-01-17T08:12:10.072Z,5.88
2023-01-17T08:14:40.624Z,5.95
2023-01-17T08:17:14.892Z,6.45
2023-01-17T08:19:45.462Z,7.68
2023-01-17T08:22:18.661Z,7.50
2023-01-17T08:24:49.221Z,7.07
2023-01-17T08:27:20.035Z,6.80
2023-01-17T08:29:51.021Z,6.00
2023-01-17T08:32:21.832Z,6.90
2023-01-17T08:34:52.341Z,6.50
2023-01-17T08:37:25.626Z,6.45
2023-01-17T08:39:56.214Z,5.50
2023-01-17T08:42:26.800Z,6.60
2023-01-17T08:44:57.254Z,6.55
2023-01-17T08:47:28.232Z,6.05
2023-01-17T08:49:59.858Z,9.75
2023-01-17T08:52:33.342Z,6.10
2023-01-17T08:55:06.024Z,6.90
2023-01-17T08:57:36.575Z,6.85
2023-01-17T09:00:07.967Z,8.43
2023-01-17T09:02:38.784Z,5.90
2023-01-17T09:05:10.574Z,6.38
2023-01-17T09:07:43.785Z,5.20
2023-01-17T09:10:14.931Z,4.80
2023-01-17T09:12:45.588Z,5.18
2023-01-17T09:15:20.356Z,4.57
2023-01-17T09:17:51.340Z,6.50
2023-01-17T09:20:22.079Z,5.57
2023-01-17T09:22:55.362Z,4.65
2023-01-17T09:25:25.860Z,4.72
2023-01-17T09:27:56.465Z,4.82
2023-01-17T09:30:27.010Z,4.80
2023-01-17T09:32:58.268Z,4.68
2023-01-17T09:35:28.704Z,6.00
2023-01-17T09:38:01.899Z,4.97
2023-01-17T09:40:32.709Z,4.90
2023-01-17T09:43:08.353Z,5.38
2023-01-17T09:45:38.879Z,6.22
2023-01-17T09:48:18.096Z,5.15
2023-01-17T09:50:53.647Z,4.30
2023-01-17T09:53:27.428Z,9.15
2023-01-17T09:56:02.594Z,7.40
2023-01-17T09:58:42.792Z,5.45
2023-01-17T10:01:19.401Z,4.43
2023-01-17T10:04:05.960Z,3.75
2023-01-17T10:06:58.693Z,3.05
2023-01-17T10:09:49.395Z,3.58
2023-01-17T10:12:32.824Z,3.15
2023-01-17T10:15:27.118Z,6.03
2023-01-17T10:18:11.342Z,3.80
2023-01-17T10:20:49.844Z,4.97
2023-01-17T10:23:41.362Z,5.72
2023-01-17T10:26:18.672Z,4.47
2023-01-17T10:28:51.561Z,4.07
2023-01-17T10:31:25.929Z,5.75
2023-01-17T10:33:57.935Z,4.45
2023-01-17T10:36:29.647Z,4.05
2023-01-17T10:39:03.702Z,3.88
2023-01-17T10:41:41.017Z,5.13
2023-01-17T10:44:21.731Z,4.40
2023-01-17T10:47:00.770Z,4.63
2023-01-17T10:49:31.703Z,4.63
2023-01-17T10:52:13.002Z,3.95
2023-01-17T10:55:10.960Z,4.55
2023-01-17T10:57:46.803Z,4.07
2023-01-17T11:00:40.141Z,3.97
2023-01-17T11:03:13.945Z,5.03
2023-01-17T11:05:45.476Z,5.47
2023-01-17T11:08:17.969Z,4.97
2023-01-17T11:10:54.284Z,4.70
2023-01-17T11:13:31.895Z,4.47
2023-01-17T11:16:06.225Z,3.42
2023-01-17T11:18:39.527Z,3.87
2023-01-17T11:21:14.401Z,3.45
2023-01-17T11:23:47.525Z,3.83
2023-01-17T11:26:27.752Z,4.30
2023-01-17T11:29:17.538Z,3.90
2023-01-17T11:31:48.108Z,4.72
2023-01-17T11:34:20.600Z,5.57
2023-01-17T11:36:51.756Z,4.75
2023-01-17T11:39:29.287Z,3.70
2023-01-17T11:42:00.175Z,4.90
2023-01-17T11:44:35.289Z,3.40
2023-01-17T11:47:19.267Z,2.90
2023-01-17T11:49:51.399Z,3.78
2023-01-17T11:52:27.445Z,3.58
2023-01-17T11:54:58.992Z,3.50
2023-01-17T11:57:32.193Z,3.88
2023-01-17T12:00:19.563Z,4.15
2023-01-17T12:03:15.541Z,4.03
2023-01-17T12:06:01.481Z,3.28
2023-01-17T12:08:51.480Z,3.13
2023-01-17T12:11:32.335Z,2.95
2023-01-17T12:14:10.346Z,3.60
2023-01-17T12:16:58.040Z,3.33
2023-01-17T12:19:38.472Z,3.65
2023-01-17T12:22:24.458Z,3.63
2023-01-17T12:25:12.174Z,3.22
2023-01-17T12:27:50.158Z,4.00
2023-01-17T12:30:44.242Z,3.80
2023-01-17T12:33:23.813Z,3.15
2023-01-17T12:35:59.441Z,4.03
2023-01-17T12:38:36.187Z,3.30
2023-01-17T12:41:13.257Z,3.40
2023-01-17T12:43:44.488Z,4.20
2023-01-17T12:46:21.553Z,3.65
2023-01-17T12:48:59.232Z,3.47
2023-01-17T12:51:32.763Z,4.57
2023-01-17T12:54:13.274Z,4.35
2023-01-17T12:56:50.935Z,3.70
2023-01-17T12:59:29.774Z,4.95
2023-01-17T13:02:03.372Z,9.63
2023-01-17T13:04:57.447Z,8.45
2023-01-17T13:07:40.734Z,3.60
2023-01-17T13:10:23.963Z,4.63
2023-01-17T13:12:55.745Z,3.80
2023-01-17T13:15:31.826Z,4.15
2023-01-17T13:18:10.728Z,3.92
2023-01-17T13:20:56.914Z,5.10
2023-01-17T13:23:36.291Z,3.38
2023-01-17T13:26:16.023Z,4.97
2023-01-17T13:28:55.035Z,3.72
2023-01-17T13:31:40.682Z,3.90
2023-01-17T13:34:53.084Z,4.90
2023-01-17T13:37:59.787Z,4.25
2023-01-17T13:43:15.337Z,3.25
2023-01-17T13:45:55.622Z,3.53
2023-01-17T13:48:34.817Z,3.40
2023-01-17T13:51:05.933Z,4.05
2023-01-17T13:54:05.209Z,3.00
2023-01-17T13:56:40.059Z,4.60
2023-01-17T13:59:32.118Z,3.60
2023-01-17T14:02:02.803Z,4.53
2023-01-17T14:05:08.920Z,3.80
2023-01-17T14:07:47.019Z,4.07
2023-01-17T14:10:33.854Z,4.18
2023-01-17T14:13:05.513Z,3.90
2023-01-17T14:15:38.528Z,4.95
2023-01-17T14:18:08.980Z,3.28
2023-01-17T14:21:05.388Z,5.72
2023-01-17T14:23:51.744Z,4.90
2023-01-17T14:26:31.286Z,4.20
2023-01-17T14:29:38.119Z,7.13
2023-01-17T14:32:12.015Z,5.38
2023-01-17T14:34:42.644Z,4.10
2023-01-17T14:37:24.085Z,4.38
2023-01-17T14:39:54.685Z,4.72
2023-01-17T14:42:31.293Z,4.32
2023-01-17T14:45:06.525Z,5.38
2023-01-17T14:47:39.596Z,4.78
2023-01-17T14:50:23.305Z,5.38
2023-01-17T14:53:10.299Z,3.70
2023-01-17T14:55:41.309Z,6.15
2023-01-17T14:58:22.648Z,4.50
2023-01-17T15:00:55.396Z,4.18
2023-01-17T15:03:26.748Z,4.28
2023-01-17T15:05:59.806Z,4.45
2023-01-17T15:08:37.960Z,4.38
2023-01-17T15:11:11.882Z,4.13
2023-01-17T15:13:50.425Z,5.20
2023-01-17T15:16:23.754Z,3.80
2023-01-17T15:18:55.264Z,3.53
2023-01-17T15:21:29.137Z,3.30
2023-01-17T15:24:02.007Z,3.20
2023-01-17T15:26:37.025Z,3.35
2023-01-17T15:29:16.065Z,4.57
2023-01-17T15:31:52.565Z,3.80
2023-01-17T15:34:30.085Z,3.40
2023-01-17T15:37:03.292Z,3.50
2023-01-17T15:39:36.506Z,5.00
2023-01-17T15:42:09.417Z,5.30
2023-01-17T15:44:49.439Z,4.28
2023-01-17T15:47:34.448Z,5.63
2023-01-17T15:50:26.894Z,3.92
2023-01-17T15:53:00.702Z,4.50
2023-01-17T15:55:34.772Z,4.20
2023-01-17T15:58:06.184Z,4.05
2023-01-17T16:00:45.343Z,4.78
2023-01-17T16:03:26.209Z,3.10
2023-01-17T16:05:58.406Z,5.30
2023-01-17T16:08:40.331Z,9.07
2023-01-17T16:11:15.962Z,6.35
2023-01-17T16:16:27.339Z,4.90
2023-01-17T16:19:03.470Z,3.20
2023-01-17T16:21:34.637Z,3.67
2023-01-17T16:24:05.909Z,3.60
2023-01-17T16:26:36.474Z,3.67
2023-01-17T16:29:07.882Z,3.55
2023-01-17T16:31:41.092Z,3.70
2023-01-17T16:34:14.856Z,3.38
2023-01-17T16:36:45.831Z,3.97
2023-01-17T16:39:17.880Z,3.42
2023-01-17T16:41:48.493Z,4.30
2023-01-17T16:44:19.380Z,4.18
2023-01-17T16:46:52.728Z,4.50
2023-01-17T16:49:23.189Z,17.25
2023-01-17T16:51:53.827Z,5.22
2023-01-17T16:54:24.575Z,5.47
2023-01-17T16:56:56.667Z,3.92
2023-01-17T16:59:39.536Z,4.00
2023-01-17T17:02:19.324Z,5.28
2023-01-17T17:04:50.547Z,5.03
2023-01-17T17:07:21.969Z,4.53
2023-01-17T17:09:52.937Z,4.85
2023-01-17T17:12:23.770Z,6.05
2023-01-17T17:14:54.413Z,4.38
2023-01-17T17:17:27.950Z,6.80
2023-01-17T17:19:58.644Z,5.55
2023-01-17T17:22:29.446Z,4.82
2023-01-17T17:25:00.101Z,5.20
2023-01-17T17:27:30.867Z,5.78
2023-01-17T17:30:01.564Z,6.10
2023-01-17T17:32:37.216Z,6.30
2023-01-17T17:35:08.761Z,5.07
2023-01-17T17:37:39.358Z,5.15
2023-01-17T17:40:11.162Z,5.43
2023-01-17T17:42:43.201Z,4.43
2023-01-17T17:45:14.840Z,4.50
2023-01-17T17:47:48.140Z,3.95
2023-01-17T17:50:19.711Z,4.43
2023-01-17T17:52:51.543Z,6.45
2023-01-17T17:55:22.299Z,4.63
2023-01-17T17:57:53.392Z,4.10
2023-01-17T18:00:24.815Z,4.70
2023-01-17T18:02:58.287Z,5.47
2023-01-17T18:05:28.972Z,5.50
2023-01-17T18:08:02.894Z,3.97
2023-01-17T18:10:33.585Z,4.38
2023-01-17T18:13:04.611Z,5.18
2023-01-17T18:15:35.395Z,4.78
2023-01-17T18:18:09.072Z,4.35
2023-01-17T18:20:40.086Z,3.65
2023-01-17T18:23:10.778Z,3.67
2023-01-17T18:25:43.466Z,3.00
2023-01-17T18:28:14.260Z,3.00
2023-01-17T18:30:44.813Z,3.17
2023-01-17T18:33:18.217Z,2.50
2023-01-17T18:35:58.770Z,2.83
2023-01-17T18:38:38.255Z,2.40
2023-01-17T18:41:09.942Z,3.00
2023-01-17T18:43:41.135Z,3.05
2023-01-17T18:46:13.330Z,2.60
2023-01-17T18:48:47.274Z,3.40
2023-01-17T18:51:19.754Z,2.25
2023-01-17T18:53:50.340Z,2.25
2023-01-17T18:56:24.057Z,1.85
2023-01-17T18:58:55.925Z,2.78
2023-01-17T19:01:28.719Z,3.28
2023-01-17T19:04:03.918Z,2.78
2023-01-17T19:06:36.421Z,3.45
2023-01-17T19:09:08.406Z,3.03
2023-01-17T19:11:39.924Z,2.38
2023-01-17T19:14:10.817Z,2.55
2023-01-17T19:16:44.018Z,2.42
2023-01-17T19:19:19.227Z,2.40
2023-01-17T19:21:54.771Z,2.60
2023-01-17T19:24:25.938Z,2.20
2023-01-17T19:26:56.746Z,2.35
2023-01-17T19:29:27.403Z,2.10
2023-01-17T19:31:59.112Z,3.05
2023-01-17T19:34:32.789Z,1.67
2023-01-17T19:37:06.324Z,2.10
2023-01-17T19:39:37.014Z,2.38
2023-01-17T19:42:09.914Z,2.97
2023-01-17T19:44:40.619Z,2.50
2023-01-17T19:47:12.393Z,2.00
2023-01-17T19:49:45.895Z,2.10
2023-01-17T19:52:16.504Z,2.20
2023-01-17T19:54:47.346Z,1.90
2023-01-17T19:57:18.217Z,1.52
2023-01-17T19:59:48.918Z,1.90
2023-01-17T20:02:19.718Z,2.35
2023-01-17T20:04:53.162Z,2.17
2023-01-17T20:07:23.825Z,2.03
2023-01-17T20:09:54.672Z,2.30
2023-01-17T20:12:25.357Z,2.40
2023-01-17T20:14:56.283Z,2.10
2023-01-17T20:17:26.776Z,2.50
2023-01-17T20:20:00.549Z,2.28
2023-01-17T20:22:31.763Z,2.95
2023-01-17T20:25:02.647Z,2.25
2023-01-17T20:27:35.199Z,2.10
2023-01-17T20:30:19.186Z,1.90
2023-01-17T20:32:51.335Z,3.25
2023-01-17T20:35:24.612Z,3.58
2023-01-17T20:37:55.592Z,2.10
2023-01-17T20:40:26.485Z,1.98
2023-01-17T20:42:57.552Z,1.85
2023-01-17T20:45:29.127Z,2.15
2023-01-17T20:48:00.138Z,2.03
2023-01-17T20:50:37.015Z,1.90
2023-01-17T20:53:07.566Z,1.80
2023-01-17T20:55:40.293Z,2.30
2023-01-17T20:58:10.836Z,1.70
2023-01-17T21:00:42.615Z,1.83
2023-01-17T21:03:13.273Z,2.05
2023-01-17T21:05:46.955Z,2.08
2023-01-17T21:08:18.658Z,3.03
2023-01-17T21:10:51.152Z,2.50
2023-01-17T21:13:21.821Z,2.30
2023-01-17T21:15:53.118Z,2.05
2023-01-17T21:18:25.548Z,2.30
2023-01-17T21:20:59.090Z,1.90
2023-01-17T21:23:29.807Z,2.10
2023-01-17T21:26:01.157Z,2.60
2023-01-17T21:28:34.446Z,2.63
2023-01-17T21:31:20.712Z,2.08
2023-01-17T21:33:52.211Z,2.08
2023-01-17T21:36:28.084Z,1.88
2023-01-17T21:39:00.053Z,2.30
2023-01-17T21:41:33.723Z,2.00
2023-01-17T21:44:08.180Z,2.38
2023-01-17T21:46:41.582Z,1.90
2023-01-17T21:49:13.672Z,2.10
2023-01-17T21:51:59.518Z,2.60
2023-01-17T21:54:43.827Z,2.38
2023-01-17T21:57:27.538Z,2.33
2023-01-17T21:59:58.318Z,1.75
2023-01-17T22:02:28.998Z,2.30
2023-01-17T22:04:59.521Z,2.00
2023-01-17T22:07:32.762Z,1.50
2023-01-17T22:10:03.255Z,1.70
2023-01-17T22:12:34.565Z,2.08
2023-01-17T22:15:05.352Z,1.80
2023-01-17T22:17:38.586Z,1.90
2023-01-17T22:20:11.818Z,1.88
2023-01-17T22:22:46.966Z,1.60
2023-01-17T22:25:18.979Z,1.73
2023-01-17T22:27:49.613Z,1.75
2023-01-17T22:30:21.276Z,1.50
2023-01-17T22:32:52.037Z,2.00
2023-01-17T22:35:23.549Z,1.77
2023-01-17T22:37:56.900Z,2.03
2023-01-17T22:40:28.041Z,1.85
2023-01-17T22:42:59.312Z,1.50
2023-01-17T22:45:30.268Z,2.15
2023-01-17T22:48:01.227Z,1.80
2023-01-17T22:50:32.102Z,1.92
2023-01-17T22:53:05.490Z,1.83
2023-01-17T22:55:36.039Z,1.95
2023-01-17T22:58:06.651Z,2.65
2023-01-17T23:00:37.239Z,1.92
2023-01-17T23:03:08.705Z,1.90
2023-01-17T23:05:46.775Z,1.98
2023-01-17T23:08:20.381Z,1.60
2023-01-17T23:11:03.143Z,1.70
2023-01-17T23:13:34.143Z,1.92
2023-01-17T23:16:20.647Z,1.90
2023-01-17T23:19:03.431Z,1.98
2023-01-17T23:21:54.301Z,1.80
2023-01-17T23:24:27.769Z,1.60
2023-01-17T23:27:10.677Z,1.70
2023-01-17T23:29:41.281Z,2.08
2023-01-17T23:32:11.885Z,2.42
2023-01-17T23:34:42.529Z,1.80
2023-01-17T23:37:13.105Z,2.05
2023-01-17T23:39:46.420Z,2.33
2023-01-17T23:42:29.174Z,2.28
2023-01-17T23:44:59.904Z,2.10
2023-01-17T23:47:30.521Z,1.98
2023-01-17T23:50:01.136Z,1.70
2023-01-17T23:52:33.665Z,1.83
2023-01-17T23:55:07.400Z,1.90
2023-01-17T23:57:37.957Z,2.10
